Flight Track Log - Related Links

Times and Time Zones

All times are in EDT time to prevent confusion due to time zone crossing. See the N762NC flight status page for this flight to view local times or setup timezone preferences in your user account.

Time Position Orientation Groundspeed Altitude Reporting Facility
EDT Latitude Longitude Course Direction KTS MPH feet Rate Location/Type
Sun 09:23:23 AM 33.6167 -84.3500 128° Southeast 229 264 3,100  Level Atlanta TRACON
Sun 09:24:18 AM 33.6000 -84.2833 107° East 263 303 5,600 2,765 Climbing Atlanta TRACON
Sun 09:25:00 AM 33.3048 -84.2832 160° South  Level FlightAware Approximate
Sun 09:25:18 AM 33.5333 -84.2500 157° South 299 344 8,400  Level Atlanta TRACON
Sun 09:26:00 AM 33.1861 -84.2434 163° South  Level FlightAware Approximate
Sun 09:26:23 AM 33.4333 -84.2167 164° South 320 368 11,000  Level Atlanta TRACON
Sun 09:27:00 AM 33.0735 -84.2025 163° South  Level FlightAware Approximate
Sun 09:27:33 AM 33.3411 -84.2203 182° South 348 400 12,500  Level Atlanta Center
Sun 09:28:00 AM 32.9980 -84.0966 128° Southeast  Level FlightAware Approximate
Sun 09:28:33 AM 33.2431 -84.1878 165° South 364 419 14,600  Level Atlanta Center
Sun 09:29:33 AM 33.1700 -84.1008 135° Southeast 356 410 16,600 1,950 Climbing Atlanta Center
Sun 09:30:33 AM 33.0867 -84.0189 141° Southeast 378 435 18,500 1,750 Climbing Atlanta Center
Sun 09:31:33 AM 33.0011 -83.9397 142° Southeast 383 441 20,100 1,700 Climbing Atlanta Center
Sun 09:32:33 AM 32.9069 -83.8583 144° Southeast 403 464 21,900 1,700 Climbing Atlanta Center
Sun 09:33:33 AM 32.8169 -83.7694 140° Southeast 416 479 23,500 1,550 Climbing Atlanta Center
Sun 09:34:33 AM 32.7269 -83.6708 137° Southeast 428 493 25,000 1,390 Climbing Atlanta Center
Sun 09:36:17 AM 32.5514 -83.4964 140° Southeast 459 528 27,300 1,061 Climbing Jacksonville Center
Sun 09:37:17 AM 32.4494 -83.3900 139° Southeast 459 528 27,900 450 Climbing Jacksonville Center
Sun 09:38:17 AM 32.3433 -83.2983 144° Southeast 473 544 28,200 1,100 Climbing Jacksonville Center
Sun 09:39:17 AM 32.2372 -83.2069 144° Southeast 478 550 30,100 1,400 Climbing Jacksonville Center
Sun 09:40:17 AM 32.1372 -83.1133 142° Southeast 468 539 31,000 900 Climbing Jacksonville Center
Sun 09:41:17 AM 32.0392 -83.0150 140° Southeast 468 539 31,900 500 Climbing Jacksonville Center
Sun 09:42:17 AM 31.9389 -82.9169 140° Southeast 468 539 32,000 50 Climbing Jacksonville Center
Sun 09:43:17 AM 31.8344 -82.8167 141° Southeast 475 547 32,000  Level Jacksonville Center
Sun 09:44:17 AM 31.7300 -82.7167 141° Southeast 475 547 32,000  Level Jacksonville Center
Sun 09:45:17 AM 31.6297 -82.6144 139° Southeast 480 552 32,000  Level Jacksonville Center
Sun 09:46:17 AM 31.5311 -82.5050 137° Southeast 480 552 32,000  Level Jacksonville Center
Sun 09:47:17 AM 31.4306 -82.3958 137° Southeast 486 559 32,000 -50 Level Jacksonville Center
Sun 09:48:17 AM 31.3278 -82.3017 142° Southeast 491 565 31,900 -50 Descending Jacksonville Center
Sun 09:49:17 AM 31.2231 -82.2075 142° Southeast 480 552 31,900  Level Jacksonville Center
Sun 09:50:17 AM 31.1181 -82.1064 140° Southeast 475 547 31,900  Level Jacksonville Center
Sun 09:51:17 AM 31.0131 -82.0053 140° Southeast 480 552 31,900  Level Jacksonville Center
Sun 09:52:17 AM 30.9078 -81.9119 143° Southeast 480 552 31,900  Level Jacksonville Center
Sun 09:53:17 AM 30.7986 -81.8236 145° Southeast 480 552 31,900  Level Jacksonville Center
Sun 09:54:17 AM 30.6853 -81.7403 148° Southeast 480 552 31,900  Level Jacksonville Center
Sun 09:55:17 AM 30.5717 -81.6597 149° Southeast 480 552 31,900  Level Jacksonville Center
Sun 09:56:17 AM 30.4561 -81.5769 148° Southeast 480 552 31,900  Level Jacksonville Center
Sun 09:57:17 AM 30.3403 -81.4989 150° Southeast 480 552 31,900  Level Jacksonville Center
Sun 09:58:17 AM 30.2167 -81.4528 162° South 468 539 31,900  Level Jacksonville Center
Sun 09:59:17 AM 30.0908 -81.4017 161° South 474 545 31,900  Level Jacksonville Center
Sun 10:00:17 AM 29.9669 -81.3558 162° South 474 545 31,900 -50 Level Jacksonville Center
Sun 10:01:17 AM 29.8392 -81.3050 161° South 474 545 31,800 -500 Descending Jacksonville Center
Sun 10:02:17 AM 29.7194 -81.2447 156° South 479 551 30,900 -950 Descending Jacksonville Center
Sun 10:03:17 AM 29.6122 -81.1942 158° South 448 516 29,900 -1,200 Descending Jacksonville Center
Sun 10:04:17 AM 29.5075 -81.1672 167° South 409 471 28,500 -2,200 Descending Jacksonville Center
Sun 10:05:17 AM 29.4089 -81.1403 167° South 382 440 25,500 -2,350 Descending Jacksonville Center
Sun 10:06:17 AM 29.3022 -81.1089 166° South 377 434 23,800 -1,950 Descending Jacksonville Center
Sun 10:07:17 AM 29.1872 -81.0992 176° South 395 455 21,600 -2,700 Descending Jacksonville Center
Sun 10:08:17 AM 29.0661 -81.0919 177° South 430 495 18,400 -2,900 Descending Jacksonville Center
Sun 10:09:17 AM 28.9447 -81.0797 175° South 447 514 15,800 -2,050 Descending Jacksonville Center
Sun 10:10:17 AM 28.8297 -81.0631 173° South 440 506 14,300 -1,000 Descending Jacksonville Center
Sun 10:11:17 AM 28.7211 -81.0531 175° South 418 481 13,800 -500 Descending Jacksonville Center
Sun 10:12:17 AM 28.6164 -81.0314 170° South 398 458 13,300 -650 Descending Jacksonville Center
Sun 10:13:17 AM 28.5181 -81.0025 166° South 386 444 12,500 -1,073 Descending Jacksonville Center
Sun 10:14:20 AM 28.4167 -80.9667 163° South 302 348 11,100 -1,951 Descending Orlando TRACON
Sun 10:15:20 AM 28.3333 -80.9500 170° South 304 350 8,500 -2,331 Descending Orlando TRACON
Sun 10:16:21 AM 28.2667 -80.9167 156° South 276 318 6,400 -2,243 Descending Orlando TRACON
Sun 10:17:15 AM 28.2500 -80.8500 106° East 265 305 4,200 -1,810 Descending Orlando TRACON
Sun 10:18:27 AM 28.3000 -80.8167 30° Northeast 234 269 2,600 -1,048 Descending Orlando TRACON
Sun 10:19:21 AM 28.2833 -80.8500 240° Southwest 206 237 2,000 -526 Descending Orlando TRACON
Sun 10:20:21 AM 28.2167 -80.8500 180° South 194 223 1,600 -200 Descending Orlando TRACON
Sun 10:21:21 AM 28.1667 -80.8333 164° South 198 228 1,600  Level Orlando TRACON
Sun 10:22:15 AM 28.1333 -80.8000 139° Southeast 203 234 1,600 -105 Level Orlando TRACON
Sun 10:23:15 AM 28.1000 -80.7500 127° Southeast 176 203 1,400 -400 Descending Orlando TRACON
Sun 10:24:15 AM 28.1000 -80.7000 90° East 135 155 800 -600 Descending Orlando TRACON

Login

Don't have an account? Register now (free) for customized features, flight alerts, and more!